Main page
METAR-TAF:

METAR-TAF

Airports :

Athens International Airport

Athens, Greece

latitude: 37-56N, longitude: 023-56E, elevation: 94 m

Current weather observation

The report was made 29 minutes ago, at 01:50 UTC
Wind 4 kt from the North/Northwest
Temperature 11°C
Humidity 87%
Pressure 1017 hPa
Visibility 10 km or more
Few clouds at a height of 3000 ft

METAR: LGAV 230150Z 33004KT 9999 FEW030 11/09 Q1017 NOSIG

Time: 04:19 (02:19 UTC)

Forecast

The report was made 3 hours and 19 minutes ago, at 23:00 UTC
Forecast valid from 23 at 00 UTC to 23 at 24 UTC
Wind 5 kt from variable directions
Visibility 10 km or more
Few clouds at a height of 2500 ft
Probability 30%
from 23 at 01 UTC to 23 at 06 UTC
Visibility: 5000 m
Broken clouds at a height of 600 ft
mist

TAF: LGAV 222300Z 2300/2324 VRB05KT 9999 FEW025 PROB30 2301/2306 5000 BR BKN006

Weather observations and forecasts of more than 4000 airports (METAR and TAF reports).

The available stations are represented by yellow and red dots on the map.

Hover mouse over dot to see the name of the station.

Then click to see weather observations and forecasts.

To change the map : click on the green buttons with a black cross to zoom in, on the green button with a dash to zoom out, or on the green arrows for adjacent maps.


METAR-TAF: